Time;durP1;ratioP1;P1;durP2;ratioP2;P2;SDS_P1;SDS_P2;PMS_P1;PMS_P2;Temp;Humidity;BMP_temperature;BMP_pressure;BME280_temperature;BME280_humidity;BME280_pressure;Samples;Min_cycle;Max_cycle;Signal;HPM_P1;HPM_P2
2022/04/07 00:02:32;;;;;;;4.83;3.20;;;;;10.80;98692.00;;;;5042780;28;20251;-64
2022/04/07 00:05:19;;;;;;;5.83;3.17;;;;;10.80;98696.00;;;;5040028;28;20848;-68
2022/04/07 00:08:06;;;;;;;4.57;3.17;;;;;10.70;98700.00;;;;5034824;28;20233;-68
2022/04/07 00:10:52;;;;;;;3.50;3.00;;;;;10.80;98693.00;;;;5042281;28;20915;-68
2022/04/07 00:13:39;;;;;;;4.13;3.20;;;;;10.80;98683.00;;;;5028317;28;21095;-71
2022/04/07 00:16:28;;;;;;;4.30;2.97;;;;;10.70;98680.00;;;;5035030;28;20234;-69
2022/04/07 00:19:15;;;;;;;3.73;3.37;;;;;10.80;98667.00;;;;5028676;28;20224;-69
2022/04/07 00:22:04;;;;;;;3.77;2.90;;;;;10.70;98659.00;;;;5035616;28;20759;-68
2022/04/07 00:24:50;;;;;;;3.73;3.13;;;;;10.80;98664.00;;;;5029637;28;20429;-69
2022/04/07 00:27:36;;;;;;;4.97;3.50;;;;;10.70;98654.00;;;;5035339;28;20262;-70
2022/04/07 00:30:23;;;;;;;4.20;3.20;;;;;10.70;98661.00;;;;5026963;28;20311;-68
2022/04/07 00:33:10;;;;;;;3.57;3.03;;;;;10.70;98624.00;;;;5032962;28;20877;-68
2022/04/07 00:35:56;;;;;;;3.97;3.10;;;;;10.80;98651.00;;;;5042786;28;20240;-68
2022/04/07 00:38:44;;;;;;;3.87;2.97;;;;;10.80;98640.00;;;;5029395;28;20254;-69
2022/04/07 00:41:30;;;;;;;3.87;2.67;;;;;10.70;98637.00;;;;5042402;28;20317;-70
2022/04/07 00:44:18;;;;;;;5.53;2.80;;;;;10.70;98620.00;;;;5042686;28;20236;-70
2022/04/07 00:47:05;;;;;;;4.70;2.63;;;;;10.70;98610.00;;;;5023823;28;20278;-69
2022/04/07 00:49:52;;;;;;;2.23;1.90;;;;;10.80;98624.00;;;;5030389;28;20364;-69
2022/04/07 00:52:42;;;;;;;3.80;2.70;;;;;10.70;98613.00;;;;5018923;28;20301;-70
2022/04/07 00:55:29;;;;;;;2.83;2.27;;;;;10.80;98596.00;;;;5035143;28;20232;-67
2022/04/07 00:58:16;;;;;;;3.03;2.67;;;;;10.80;98601.00;;;;5040299;28;20229;-68
2022/04/07 01:01:02;;;;;;;4.07;2.50;;;;;10.80;98602.00;;;;5043186;28;20231;-67
2022/04/07 01:03:50;;;;;;;3.07;2.37;;;;;10.80;98604.00;;;;5029565;28;20232;-68
2022/04/07 01:06:36;;;;;;;2.27;2.07;;;;;10.80;98599.00;;;;5030380;28;20232;-69
2022/04/07 01:09:22;;;;;;;3.67;2.53;;;;;10.80;98590.00;;;;5038786;28;20229;-70
2022/04/07 01:12:11;;;;;;;3.13;2.73;;;;;10.80;98569.00;;;;5046298;28;20240;-68
2022/04/07 01:14:59;;;;;;;2.70;2.50;;;;;10.70;98562.00;;;;5035617;28;20839;-68
2022/04/07 01:17:45;;;;;;;3.67;2.40;;;;;10.70;98581.00;;;;5030613;28;20236;-69
2022/04/07 01:20:32;;;;;;;2.87;2.17;;;;;10.70;98577.00;;;;5045225;28;20239;-67
2022/04/07 01:23:18;;;;;;;3.10;2.27;;;;;10.70;98564.00;;;;5046192;28;20252;-67
2022/04/07 01:26:07;;;;;;;2.33;2.10;;;;;10.70;98562.00;;;;5040653;28;20683;-67
2022/04/07 01:28:53;;;;;;;3.23;2.10;;;;;10.60;98565.00;;;;5034036;28;20244;-67
2022/04/07 01:31:40;;;;;;;2.53;2.07;;;;;10.70;98575.00;;;;5030391;28;20264;-68
2022/04/07 01:34:27;;;;;;;2.20;2.00;;;;;10.70;98536.00;;;;5043279;28;20769;-70
2022/04/07 01:37:13;;;;;;;2.73;2.03;;;;;10.70;98526.00;;;;5042525;28;20229;-68
2022/04/07 01:40:03;;;;;;;1.77;1.53;;;;;10.70;98543.00;;;;5045896;28;20272;-65
2022/04/07 01:42:53;;;;;;;2.00;1.80;;;;;10.70;98536.00;;;;5033107;28;20778;-69
2022/04/07 01:45:41;;;;;;;4.30;1.80;;;;;10.70;98530.00;;;;5030567;28;20229;-67
2022/04/07 01:48:29;;;;;;;3.47;1.60;;;;;10.60;98523.00;;;;5045726;28;20260;-68
2022/04/07 01:51:16;;;;;;;2.97;1.50;;;;;10.80;98523.00;;;;5044942;28;20241;-69
2022/04/07 01:54:03;;;;;;;1.70;1.43;;;;;10.70;98507.00;;;;5045242;28;20313;-68
2022/04/07 01:56:49;;;;;;;2.13;1.70;;;;;10.80;98512.00;;;;5032330;28;20233;-68
2022/04/07 01:59:37;;;;;;;2.00;1.80;;;;;10.70;98502.00;;;;5043927;28;20378;-69
2022/04/07 02:02:24;;;;;;;2.97;1.73;;;;;10.70;98499.00;;;;5043261;28;20234;-66
2022/04/07 02:05:11;;;;;;;5.13;1.67;;;;;10.70;98498.00;;;;5045747;28;20715;-67
2022/04/07 02:07:57;;;;;;;3.60;1.90;;;;;10.70;98474.00;;;;5033940;28;20267;-68
2022/04/07 02:10:44;;;;;;;2.07;1.70;;;;;10.60;98496.00;;;;5030040;28;20237;-66
2022/04/07 02:13:32;;;;;;;3.23;1.73;;;;;10.70;98471.00;;;;5045240;28;20229;-68
2022/04/07 02:16:22;;;;;;;3.17;1.60;;;;;10.70;98492.00;;;;5045196;28;20745;-67
2022/04/07 02:19:09;;;;;;;1.80;1.60;;;;;10.70;98473.00;;;;5041506;28;20234;-68
2022/04/07 02:21:55;;;;;;;2.30;1.70;;;;;10.70;98469.00;;;;5032868;28;20268;-68
2022/04/07 02:24:41;;;;;;;1.80;1.60;;;;;10.70;98452.00;;;;5045216;28;20234;-68
2022/04/07 02:27:34;;;;;;;2.30;1.50;;;;;10.70;98465.00;;;;5044666;28;20231;-67
2022/04/07 02:30:20;;;;;;;2.53;1.77;;;;;10.70;98463.00;;;;5044834;28;20227;-67
2022/04/07 02:33:08;;;;;;;1.80;1.47;;;;;10.60;98458.00;;;;5044571;28;20242;-68
2022/04/07 02:35:54;;;;;;;1.60;1.50;;;;;10.60;98466.00;;;;5032574;28;20362;-69
2022/04/07 02:38:40;;;;;;;2.17;1.60;;;;;10.70;98447.00;;;;5041151;28;20218;-69
2022/04/07 02:41:26;;;;;;;2.10;1.83;;;;;10.70;98444.00;;;;5044674;28;20936;-68
2022/04/07 02:44:12;;;;;;;3.47;1.90;;;;;10.60;98435.00;;;;5045263;28;20230;-67
2022/04/07 02:46:58;;;;;;;5.57;1.87;;;;;10.70;98434.00;;;;5033256;28;20230;-68
2022/04/07 02:49:47;;;;;;;3.43;1.93;;;;;10.60;98424.00;;;;5028910;28;21021;-68
2022/04/07 02:52:33;;;;;;;3.80;1.87;;;;;10.70;98425.00;;;;5044373;28;20230;-67
2022/04/07 02:55:19;;;;;;;3.57;1.73;;;;;10.60;98408.00;;;;5044767;28;20294;-67
2022/04/07 02:58:06;;;;;;;2.27;1.40;;;;;10.70;98399.00;;;;5044452;28;20341;-68
2022/04/07 03:00:52;;;;;;;3.47;1.90;;;;;10.70;98392.00;;;;5024384;28;20999;-69
2022/04/07 03:03:38;;;;;;;3.03;1.77;;;;;10.70;98394.00;;;;5038452;28;20232;-67
2022/04/07 03:06:26;;;;;;;3.30;1.60;;;;;10.70;98377.00;;;;5020351;28;20645;-70
2022/04/07 03:09:12;;;;;;;2.53;1.70;;;;;10.70;98381.00;;;;5015672;28;20726;-68
2022/04/07 03:11:58;;;;;;;2.30;1.50;;;;;10.70;98369.00;;;;5018037;28;20226;-68
2022/04/07 03:14:45;;;;;;;1.80;1.50;;;;;10.70;98362.00;;;;5013370;28;20321;-70
2022/04/07 03:17:33;;;;;;;2.63;1.60;;;;;10.70;98337.00;;;;5011527;28;20402;-69
2022/04/07 03:20:19;;;;;;;2.33;1.70;;;;;10.70;98364.00;;;;5040116;28;20235;-68
2022/04/07 03:23:07;;;;;;;3.07;1.80;;;;;10.70;98357.00;;;;5040528;28;20343;-69
2022/04/07 03:25:53;;;;;;;1.63;1.53;;;;;10.70;98358.00;;;;5035225;28;20598;-68
2022/04/07 03:28:39;;;;;;;1.80;1.70;;;;;10.80;98350.00;;;;5042007;28;20234;-71
2022/04/07 03:31:25;;;;;;;3.23;2.03;;;;;10.80;98364.00;;;;5035417;28;20296;-67
2022/04/07 03:34:11;;;;;;;5.03;2.30;;;;;10.70;98337.00;;;;5044289;28;20241;-67
2022/04/07 03:36:57;;;;;;;3.17;1.80;;;;;10.80;98346.00;;;;5027621;28;20252;-67
2022/04/07 03:39:45;;;;;;;5.27;2.33;;;;;10.80;98340.00;;;;5044018;28;20228;-68
2022/04/07 03:42:31;;;;;;;3.40;2.07;;;;;10.90;98335.00;;;;5043924;28;20300;-68
2022/04/07 03:45:18;;;;;;;3.03;2.00;;;;;10.90;98319.00;;;;5044740;28;20708;-67
2022/04/07 03:48:05;;;;;;;2.80;1.77;;;;;10.80;98312.00;;;;5037930;28;20218;-70
2022/04/07 03:50:52;;;;;;;2.67;1.93;;;;;10.70;98313.00;;;;5029412;28;20373;-68
2022/04/07 03:53:38;;;;;;;3.77;1.93;;;;;10.80;98314.00;;;;5043574;28;20234;-68
2022/04/07 03:56:26;;;;;;;4.83;1.97;;;;;10.80;98296.00;;;;5043942;28;20271;-68
2022/04/07 03:59:12;;;;;;;2.70;1.93;;;;;10.90;98314.00;;;;5043916;28;20238;-67
2022/04/07 04:01:58;;;;;;;3.87;2.40;;;;;10.90;98297.00;;;;5030951;28;20233;-68
2022/04/07 04:04:45;;;;;;;3.37;2.33;;;;;10.90;98296.00;;;;5043588;28;20636;-69
2022/04/07 04:07:31;;;;;;;3.93;2.33;;;;;10.80;98288.00;;;;5043143;28;20641;-69
2022/04/07 04:10:18;;;;;;;2.57;1.77;;;;;10.90;98272.00;;;;5043438;28;20229;-67
2022/04/07 04:13:06;;;;;;;3.00;1.60;;;;;10.90;98272.00;;;;5032224;28;20567;-68
2022/04/07 04:15:53;;;;;;;1.70;1.50;;;;;10.90;98241.00;;;;5043018;28;20301;-69
2022/04/07 04:18:39;;;;;;;3.67;1.53;;;;;10.80;98261.00;;;;5036231;28;20614;-67
2022/04/07 04:21:25;;;;;;;4.53;1.63;;;;;10.90;98248.00;;;;5042920;28;20285;-68
2022/04/07 04:24:12;;;;;;;2.33;1.70;;;;;10.90;98249.00;;;;5032894;28;20266;-67
2022/04/07 04:26:58;;;;;;;1.53;1.43;;;;;10.90;98242.00;;;;5029984;28;20236;-68
2022/04/07 04:29:46;;;;;;;2.37;1.80;;;;;11.00;98262.00;;;;5038484;28;20383;-68
2022/04/07 04:32:32;;;;;;;1.83;1.50;;;;;11.00;98215.00;;;;5039792;28;20243;-67
2022/04/07 04:35:18;;;;;;;1.67;1.30;;;;;11.00;98234.00;;;;5043531;28;20232;-69
2022/04/07 04:38:05;;;;;;;1.63;1.43;;;;;10.90;98227.00;;;;5038245;28;20225;-67
2022/04/07 04:40:51;;;;;;;1.40;1.30;;;;;11.00;98207.00;;;;5027794;28;20353;-68
2022/04/07 04:43:37;;;;;;;4.50;1.63;;;;;11.00;98207.00;;;;5042489;28;20754;-68
2022/04/07 04:46:24;;;;;;;1.50;1.30;;;;;11.10;98198.00;;;;5042802;28;20236;-72
2022/04/07 04:49:11;;;;;;;1.97;1.43;;;;;11.10;98204.00;;;;5042858;28;20766;-70
2022/04/07 04:51:57;;;;;;;3.93;1.30;;;;;11.10;98193.00;;;;5028830;28;20638;-68
2022/04/07 04:54:43;;;;;;;1.63;1.40;;;;;11.10;98181.00;;;;5042641;28;20244;-69
2022/04/07 04:57:29;;;;;;;2.37;1.53;;;;;11.10;98179.00;;;;5042770;28;21053;-70
2022/04/07 05:00:16;;;;;;;2.03;1.37;;;;;11.00;98172.00;;;;5036430;28;20225;-66
2022/04/07 05:03:03;;;;;;;1.50;1.40;;;;;11.10;98168.00;;;;5029990;28;20308;-68
2022/04/07 05:05:50;;;;;;;1.70;1.27;;;;;11.00;98153.00;;;;5027099;28;20841;-70
2022/04/07 05:08:36;;;;;;;1.60;1.50;;;;;11.10;98162.00;;;;5042199;28;20228;-68
2022/04/07 05:11:22;;;;;;;1.60;1.50;;;;;11.20;98132.00;;;;5042557;28;20742;-68
2022/04/07 05:14:09;;;;;;;4.07;1.60;;;;;11.10;98109.00;;;;5042595;28;20239;-67
2022/04/07 05:16:55;;;;;;;1.70;1.60;;;;;11.20;98119.00;;;;5028073;28;20234;-68
2022/04/07 05:19:45;;;;;;;5.20;2.10;;;;;11.10;98104.00;;;;5034660;28;20657;-68
2022/04/07 05:22:31;;;;;;;3.23;1.57;;;;;11.10;98087.00;;;;5035520;28;20292;-67
2022/04/07 05:25:18;;;;;;;5.20;1.67;;;;;11.00;98087.00;;;;5042611;28;20767;-70
2022/04/07 05:28:06;;;;;;;2.57;1.70;;;;;11.00;98097.00;;;;5042525;28;20626;-68
2022/04/07 05:30:52;;;;;;;4.87;2.17;;;;;10.80;98097.00;;;;5026499;28;20227;-69
2022/04/07 05:33:39;;;;;;;1.57;1.47;;;;;10.70;98099.00;;;;5041034;28;20247;-69
2022/04/07 05:36:27;;;;;;;3.93;1.90;;;;;10.60;98101.00;;;;5042330;28;20619;-69
2022/04/07 05:39:14;;;;;;;3.00;1.83;;;;;10.50;98078.00;;;;5037488;28;20234;-67
2022/04/07 05:42:00;;;;;;;2.40;2.07;;;;;10.50;98053.00;;;;5042511;28;20235;-68
2022/04/07 05:44:46;;;;;;;2.10;1.90;;;;;10.40;98054.00;;;;5046034;28;20229;-69
2022/04/07 05:47:39;;;;;;;2.63;2.20;;;;;10.40;98054.00;;;;5045402;28;20274;-69
2022/04/07 05:50:25;;;;;;;2.33;1.80;;;;;10.40;98048.00;;;;5046120;28;20231;-70
2022/04/07 05:53:12;;;;;;;3.00;2.23;;;;;10.30;98026.00;;;;5040174;28;20308;-67
2022/04/07 05:55:59;;;;;;;2.50;1.97;;;;;10.20;98011.00;;;;5034025;28;20230;-68
2022/04/07 05:58:45;;;;;;;5.57;2.03;;;;;10.20;98015.00;;;;5045952;28;20236;-70
2022/04/07 06:01:32;;;;;;;2.77;2.10;;;;;10.30;97984.00;;;;5038018;28;20224;-68
2022/04/07 06:04:18;;;;;;;2.00;1.80;;;;;10.20;97996.00;;;;5045919;28;20226;-68
2022/04/07 06:07:05;;;;;;;2.33;1.83;;;;;10.40;97977.00;;;;5013206;28;20286;-69
2022/04/07 06:09:53;;;;;;;2.63;2.43;;;;;10.40;97998.00;;;;5018735;28;20241;-67
2022/04/07 06:12:42;;;;;;;3.07;2.10;;;;;10.40;97976.00;;;;5016857;28;20232;-67
2022/04/07 06:15:29;;;;;;;2.63;1.90;;;;;10.50;97983.00;;;;5016072;28;20231;-68
2022/04/07 06:18:16;;;;;;;2.23;2.00;;;;;10.40;97983.00;;;;5019420;28;20328;-68
2022/04/07 06:21:02;;;;;;;2.07;1.70;;;;;10.50;97975.00;;;;5031223;28;20305;-67
2022/04/07 06:23:49;;;;;;;2.47;2.10;;;;;10.50;97960.00;;;;5018791;28;20249;-68
2022/04/07 06:26:36;;;;;;;3.00;2.33;;;;;10.40;98003.00;;;;5019190;28;20357;-68
2022/04/07 06:29:23;;;;;;;2.63;2.23;;;;;10.50;97947.00;;;;5018289;28;20237;-70
2022/04/07 06:32:09;;;;;;;2.30;1.93;;;;;10.50;97948.00;;;;5015101;28;20308;-68
2022/04/07 06:34:55;;;;;;;3.33;2.17;;;;;10.60;97939.00;;;;5027159;28;20375;-69
2022/04/07 06:37:49;;;;;;;2.33;1.80;;;;;10.70;97926.00;;;;5024265;28;20261;-69
2022/04/07 06:40:35;;;;;;;2.90;1.63;;;;;10.70;97905.00;;;;5044085;28;20300;-70
2022/04/07 06:43:24;;;;;;;1.77;1.63;;;;;10.80;97907.00;;;;5045188;28;20338;-69
2022/04/07 06:46:10;;;;;;;3.43;1.83;;;;;10.80;97893.00;;;;5032773;28;20226;-69
2022/04/07 06:48:56;;;;;;;1.70;1.60;;;;;10.80;97908.00;;;;5028489;28;20230;-69
2022/04/07 06:51:42;;;;;;;3.87;2.00;;;;;10.90;97881.00;;;;5044405;28;20259;-69
2022/04/07 06:54:29;;;;;;;2.87;1.83;;;;;10.90;97872.00;;;;5043484;28;20237;-68
2022/04/07 06:57:15;;;;;;;4.43;1.60;;;;;10.90;97876.00;;;;5034204;28;20283;-69
2022/04/07 07:00:04;;;;;;;3.43;1.87;;;;;11.00;97863.00;;;;5023688;28;20732;-70
2022/04/07 07:02:52;;;;;;;1.77;1.67;;;;;10.90;97858.00;;;;5043890;28;20282;-69
2022/04/07 07:05:39;;;;;;;1.50;1.40;;;;;10.80;97845.00;;;;5044166;28;20234;-68
2022/04/07 07:08:25;;;;;;;2.13;1.50;;;;;10.80;97838.00;;;;5039133;28;20295;-67
2022/04/07 07:11:12;;;;;;;1.20;1.20;;;;;10.80;97847.00;;;;5038610;28;20231;-69
2022/04/07 07:13:58;;;;;;;2.10;1.40;;;;;10.80;97852.00;;;;5028889;28;20285;-69
2022/04/07 07:16:47;;;;;;;1.33;1.23;;;;;10.70;97854.00;;;;5044281;28;20323;-72
2022/04/07 07:19:34;;;;;;;2.60;1.20;;;;;10.50;97838.00;;;;5034500;28;20353;-69
2022/04/07 07:22:20;;;;;;;1.63;1.53;;;;;10.40;97833.00;;;;5038530;28;20227;-69
2022/04/07 07:25:07;;;;;;;2.60;1.43;;;;;10.40;97842.00;;;;5044117;28;20228;-69
2022/04/07 07:27:54;;;;;;;2.90;1.30;;;;;10.30;97824.00;;;;5044025;28;20352;-69
2022/04/07 07:30:40;;;;;;;1.13;1.03;;;;;10.20;97802.00;;;;5043938;28;20299;-68
2022/04/07 07:33:28;;;;;;;1.47;1.13;;;;;10.20;97803.00;;;;5043730;28;20232;-69
2022/04/07 07:36:14;;;;;;;2.67;1.77;;;;;10.10;97791.00;;;;5030118;28;20280;-69
2022/04/07 07:39:01;;;;;;;1.60;1.20;;;;;10.20;97778.00;;;;5034310;28;20594;-68
2022/04/07 07:41:47;;;;;;;1.43;1.33;;;;;10.00;97774.00;;;;5043517;28;20756;-69
2022/04/07 07:44:34;;;;;;;3.00;1.20;;;;;10.00;97759.00;;;;5043527;28;20232;-68
2022/04/07 07:47:20;;;;;;;2.67;1.50;;;;;10.00;97770.00;;;;5043738;28;20370;-67
2022/04/07 07:50:09;;;;;;;2.80;1.30;;;;;10.00;97747.00;;;;5029256;28;20229;-69
2022/04/07 07:52:55;;;;;;;2.67;1.47;;;;;10.00;97731.00;;;;5043353;28;20718;-69
2022/04/07 07:55:41;;;;;;;1.27;1.20;;;;;10.10;97725.00;;;;5043457;28;20242;-70
2022/04/07 07:58:27;;;;;;;3.27;1.27;;;;;10.10;97709.00;;;;5043850;28;20295;-70
2022/04/07 08:01:14;;;;;;;2.07;1.10;;;;;10.20;97698.00;;;;5043936;28;20232;-70
2022/04/07 08:04:00;;;;;;;1.57;1.10;;;;;10.10;97695.00;;;;5043301;28;20238;-68
2022/04/07 08:06:48;;;;;;;2.10;1.07;;;;;10.20;97678.00;;;;5042633;28;20315;-68
2022/04/07 08:09:34;;;;;;;3.37;1.20;;;;;10.20;97670.00;;;;5042851;28;20552;-68
2022/04/07 08:12:20;;;;;;;1.77;1.23;;;;;10.20;97666.00;;;;5043564;28;20757;-67
2022/04/07 08:15:07;;;;;;;1.10;1.10;;;;;10.20;97642.00;;;;5028893;28;20284;-67
2022/04/07 08:17:54;;;;;;;1.10;1.00;;;;;10.30;97642.00;;;;5042509;28;20232;-69
2022/04/07 08:20:40;;;;;;;1.13;1.10;;;;;10.30;97624.00;;;;5042763;28;20853;-70
2022/04/07 08:23:27;;;;;;;1.00;1.00;;;;;10.30;97614.00;;;;5035368;28;20232;-68
2022/04/07 08:26:13;;;;;;;0.97;0.97;;;;;10.40;97615.00;;;;5030692;28;20614;-69
2022/04/07 08:28:59;;;;;;;1.20;1.10;;;;;10.50;97614.00;;;;5026464;28;20251;-70
2022/04/07 08:31:46;;;;;;;1.60;1.27;;;;;10.50;97597.00;;;;5022490;28;20234;-69
2022/04/07 08:34:33;;;;;;;1.07;1.00;;;;;10.60;97597.00;;;;5035834;28;20241;-69
2022/04/07 08:37:20;;;;;;;1.90;1.10;;;;;10.60;97595.00;;;;5039179;28;21076;-70
2022/04/07 08:40:08;;;;;;;1.10;1.00;;;;;10.60;97560.00;;;;5027898;28;20694;-68
2022/04/07 08:42:54;;;;;;;1.00;1.00;;;;;10.70;97567.00;;;;5042576;28;20258;-68
2022/04/07 08:45:42;;;;;;;1.27;1.17;;;;;10.80;97564.00;;;;5040256;28;20232;-68
2022/04/07 08:48:30;;;;;;;1.90;0.97;;;;;10.90;97546.00;;;;5042668;28;20238;-68
2022/04/07 08:51:17;;;;;;;1.17;1.03;;;;;10.90;97564.00;;;;5030869;28;20233;-66
2022/04/07 08:54:04;;;;;;;1.30;1.20;;;;;10.80;97535.00;;;;5027363;28;20237;-67
2022/04/07 08:56:52;;;;;;;1.00;1.00;;;;;10.90;97537.00;;;;5042544;28;20353;-65
2022/04/07 08:59:38;;;;;;;1.10;1.00;;;;;10.80;97540.00;;;;5041760;28;20236;-68
2022/04/07 09:02:24;;;;;;;1.50;1.40;;;;;10.90;97537.00;;;;5042724;28;20262;-66
2022/04/07 09:05:11;;;;;;;1.50;1.40;;;;;10.90;97548.00;;;;5027584;28;20224;-69
2022/04/07 09:07:58;;;;;;;1.57;1.47;;;;;10.90;97719.00;;;;5027144;28;20728;-69
2022/04/07 09:10:53;;;;;;;2.93;0.90;;;;;9.90;97747.00;;;;5039551;28;20250;-66
2022/04/07 09:13:44;;;;;;;0.70;0.70;;;;;9.00;97751.00;;;;5042047;28;20360;-67
2022/04/07 09:16:32;;;;;;;0.43;0.43;;;;;8.70;97734.00;;;;5042235;28;20242;-69
2022/04/07 09:19:21;;;;;;;1.03;0.70;;;;;8.30;97722.00;;;;5044716;28;20231;-67
2022/04/07 09:22:09;;;;;;;1.70;0.60;;;;;8.20;97719.00;;;;5041857;28;20905;-67
2022/04/07 09:24:55;;;;;;;0.70;0.70;;;;;8.20;97718.00;;;;5044681;28;20233;-68
2022/04/07 09:27:42;;;;;;;0.80;0.80;;;;;8.30;97707.00;;;;5046162;28;20236;-66
2022/04/07 09:30:37;;;;;;;0.70;0.70;;;;;8.40;97713.00;;;;5045994;28;20228;-65
2022/04/07 09:33:24;;;;;;;1.33;0.80;;;;;8.40;97714.00;;;;5035394;28;20264;-67
2022/04/07 09:36:12;;;;;;;0.60;0.60;;;;;8.40;97696.00;;;;5032177;28;20232;-68
2022/04/07 09:39:00;;;;;;;0.60;0.60;;;;;8.60;97696.00;;;;5038703;28;20237;-68
2022/04/07 09:41:47;;;;;;;1.30;0.73;;;;;8.80;97704.00;;;;5021685;28;20230;-67
2022/04/07 09:44:38;;;;;;;0.70;0.70;;;;;8.90;97690.00;;;;5010371;28;20237;-67
2022/04/07 09:47:35;;;;;;;0.70;0.70;;;;;9.00;97681.00;;;;5009770;28;20607;-68
2022/04/07 09:50:23;;;;;;;1.20;0.70;;;;;9.20;97675.00;;;;5012217;28;20229;-66
2022/04/07 09:53:09;;;;;;;0.70;0.70;;;;;9.30;97671.00;;;;5016381;28;20229;-67
2022/04/07 09:55:57;;;;;;;0.63;0.63;;;;;9.30;97659.00;;;;5007633;28;20277;-68
2022/04/07 09:58:44;;;;;;;0.73;0.73;;;;;9.60;97663.00;;;;5017222;28;20231;-71
2022/04/07 10:01:30;;;;;;;0.80;0.80;;;;;9.70;97663.00;;;;5022800;28;20605;-68
2022/04/07 10:04:21;;;;;;;0.70;0.70;;;;;10.00;97662.00;;;;5009922;28;20239;-65
2022/04/07 10:07:11;;;;;;;0.80;0.80;;;;;10.20;97663.00;;;;5011696;28;20304;-66
2022/04/07 10:09:58;;;;;;;2.40;1.10;;;;;10.40;97658.00;;;;5017430;28;20250;-70
2022/04/07 10:12:46;;;;;;;1.10;1.00;;;;;10.70;97658.00;;;;5040192;28;20250;-67
2022/04/07 10:15:33;;;;;;;0.77;0.77;;;;;10.90;97644.00;;;;5046010;28;20234;-68
2022/04/07 10:18:28;;;;;;;1.10;1.10;;;;;10.80;97644.00;;;;5029280;28;20712;-67
2022/04/07 10:21:31;;;;;;;1.03;0.93;;;;;10.90;97644.00;;;;5031572;28;20908;-71
2022/04/07 10:24:29;;;;;;;1.07;0.90;;;;;10.90;97662.00;;;;5032253;28;20241;-65
2022/04/07 10:27:43;;;;;;;2.87;1.00;;;;;11.10;97647.00;;;;5032289;28;20241;-71
2022/04/07 10:30:30;;;;;;;1.03;0.90;;;;;11.30;97642.00;;;;5034916;28;20316;-70
2022/04/07 10:33:34;;;;;;;1.77;1.30;;;;;11.40;97646.00;;;;5041868;28;20240;-66
2022/04/07 10:36:23;;;;;;;1.63;1.00;;;;;11.50;97668.00;;;;5032975;28;20615;-66
2022/04/07 10:39:12;;;;;;;1.00;1.00;;;;;11.80;97675.00;;;;5035712;28;20237;-69
2022/04/07 10:42:01;;;;;;;1.27;0.90;;;;;11.70;97669.00;;;;5044711;28;20240;-65
2022/04/07 10:45:05;;;;;;;1.00;1.00;;;;;11.70;97666.00;;;;5044880;28;20235;-68
2022/04/07 10:48:16;;;;;;;2.40;1.20;;;;;12.00;97675.00;;;;5044412;28;20871;-65
2022/04/07 10:51:04;;;;;;;1.53;1.07;;;;;12.00;97668.00;;;;5044150;28;20224;-67
2022/04/07 10:54:05;;;;;;;2.40;1.37;;;;;12.00;97667.00;;;;5044596;28;20240;-67
2022/04/07 10:56:53;;;;;;;3.93;1.30;;;;;11.90;97668.00;;;;5027658;28;20331;-70
2022/04/07 10:59:41;;;;;;;3.13;1.20;;;;;12.20;97678.00;;;;5007019;28;20229;-72
2022/04/07 11:02:33;;;;;;;2.70;1.07;;;;;12.50;97679.00;;;;5008890;28;20230;-72
2022/04/07 11:05:24;;;;;;;2.80;1.30;;;;;12.80;97653.00;;;;5009464;28;20225;-69
2022/04/07 11:08:20;;;;;;;1.30;1.20;;;;;13.20;97674.00;;;;5013579;28;20319;-67
2022/04/07 11:11:08;;;;;;;2.60;1.27;;;;;13.40;97645.00;;;;5021546;28;20318;-70
2022/04/07 11:13:59;;;;;;;2.50;1.03;;;;;13.80;97671.00;;;;5040603;28;20331;-66
2022/04/07 11:16:47;;;;;;;1.47;1.13;;;;;13.80;97652.00;;;;5041649;28;20690;-70
2022/04/07 11:19:43;;;;;;;1.20;1.10;;;;;13.70;97650.00;;;;5042489;28;20714;-68
2022/04/07 11:22:52;;;;;;;4.73;1.03;;;;;13.90;97670.00;;;;5032589;28;20359;-67
2022/04/07 11:25:41;;;;;;;1.90;0.97;;;;;14.30;97669.00;;;;5033508;28;20224;-67
2022/04/07 11:28:32;;;;;;;1.27;1.17;;;;;14.30;97681.00;;;;5043980;28;20363;-68
2022/04/07 11:31:39;;;;;;;0.80;0.80;;;;;14.60;97667.00;;;;5030891;28;20231;-67
2022/04/07 11:34:50;;;;;;;0.90;0.90;;;;;14.90;97656.00;;;;5032029;28;20283;-68
2022/04/07 11:37:39;;;;;;;2.40;1.00;;;;;15.20;97633.00;;;;5028382;28;20241;-68
2022/04/07 11:40:26;;;;;;;2.03;1.00;;;;;15.50;97671.00;;;;5009147;28;20230;-67
2022/04/07 11:43:13;;;;;;;3.57;1.20;;;;;15.50;97679.00;;;;5017904;28;20239;-69
2022/04/07 11:46:02;;;;;;;4.13;1.03;;;;;15.80;97673.00;;;;5008303;28;20234;-69
2022/04/07 11:49:11;;;;;;;2.63;0.90;;;;;16.00;97659.00;;;;5012255;28;20301;-70
2022/04/07 11:51:58;;;;;;;1.17;1.00;;;;;16.00;97643.00;;;;5026542;28;20773;-69
2022/04/07 11:54:44;;;;;;;3.53;1.10;;;;;15.60;97680.00;;;;5043788;28;20241;-67
2022/04/07 11:57:32;;;;;;;1.80;1.00;;;;;15.60;97690.00;;;;5032738;28;20241;-66
2022/04/07 12:00:19;;;;;;;2.37;1.00;;;;;15.40;97715.00;;;;5027875;28;20237;-67
2022/04/07 12:03:07;;;;;;;2.07;1.20;;;;;14.70;97709.00;;;;5043045;28;20440;-69
2022/04/07 12:05:56;;;;;;;3.03;1.20;;;;;14.20;97741.00;;;;5043498;28;20283;-69
2022/04/07 12:08:42;;;;;;;3.13;1.20;;;;;14.30;97725.00;;;;5043582;28;20348;-68
2022/04/07 12:11:31;;;;;;;1.13;1.03;;;;;14.40;97733.00;;;;5032046;28;20228;-67
2022/04/07 12:14:21;;;;;;;3.47;1.27;;;;;14.10;97745.00;;;;5029303;28;20296;-67
2022/04/07 12:17:09;;;;;;;1.20;1.00;;;;;14.00;97731.00;;;;5042894;28;20294;-70
2022/04/07 12:19:56;;;;;;;4.27;1.27;;;;;14.00;97738.00;;;;5024195;28;20302;-67
2022/04/07 12:22:43;;;;;;;4.83;1.10;;;;;14.00;97734.00;;;;5042047;28;20308;-65
2022/04/07 12:25:29;;;;;;;5.57;1.30;;;;;13.80;97723.00;;;;5021251;28;20600;-69
2022/04/07 12:28:17;;;;;;;1.80;1.13;;;;;13.80;97745.00;;;;5028232;28;20322;-66
2022/04/07 12:31:04;;;;;;;1.93;1.20;;;;;14.00;97751.00;;;;5040502;28;20887;-69
2022/04/07 12:33:50;;;;;;;3.47;1.37;;;;;14.40;97754.00;;;;5043488;28;20259;-68
2022/04/07 12:36:39;;;;;;;3.37;1.17;;;;;14.40;97750.00;;;;5043318;28;20260;-66
2022/04/07 12:39:29;;;;;;;1.00;0.87;;;;;14.70;97744.00;;;;5037232;28;20356;-67
2022/04/07 12:42:15;;;;;;;1.77;1.00;;;;;15.00;97745.00;;;;5013400;28;20306;-69
2022/04/07 12:45:06;;;;;;;2.43;1.10;;;;;14.80;97742.00;;;;5044207;28;20744;-70
2022/04/07 12:48:04;;;;;;;4.77;1.40;;;;;14.80;97751.00;;;;5046079;28;20248;-66
2022/04/07 12:51:23;;;;;;;5.73;1.10;;;;;15.10;97773.00;;;;5032193;28;20229;-68
2022/04/07 12:54:13;;;;;;;1.87;0.90;;;;;15.00;97791.00;;;;5014512;28;20582;-70
2022/04/07 12:57:11;;;;;;;4.33;1.13;;;;;15.00;97803.00;;;;5007345;28;20722;-67
2022/04/07 12:59:59;;;;;;;11.10;1.67;;;;;15.40;97836.00;;;;5040701;28;20241;-68
2022/04/07 13:02:46;;;;;;;5.07;1.27;;;;;15.30;97822.00;;;;5046737;28;20236;-67
2022/04/07 13:05:35;;;;;;;2.73;1.07;;;;;15.50;97832.00;;;;5030645;28;20319;-68
2022/04/07 13:08:21;;;;;;;3.90;1.10;;;;;15.50;97846.00;;;;5046877;28;20706;-65
2022/04/07 13:11:09;;;;;;;3.03;1.13;;;;;15.30;97852.00;;;;5046424;28;20233;-67
2022/04/07 13:13:55;;;;;;;3.23;1.37;;;;;15.00;97860.00;;;;5046154;28;20935;-67
2022/04/07 13:16:42;;;;;;;2.90;1.13;;;;;14.90;97842.00;;;;5046542;28;20237;-67
2022/04/07 13:19:28;;;;;;;3.37;1.30;;;;;14.80;97860.00;;;;5036127;28;20307;-66
2022/04/07 13:22:14;;;;;;;5.13;1.10;;;;;15.00;97858.00;;;;5044727;28;20232;-68
2022/04/07 13:25:07;;;;;;;5.10;1.27;;;;;14.80;97873.00;;;;5045960;28;20243;-68
2022/04/07 13:27:54;;;;;;;2.63;1.10;;;;;14.20;97857.00;;;;5046172;28;20240;-67
2022/04/07 13:30:44;;;;;;;6.20;1.50;;;;;14.00;97873.00;;;;5046042;28;20359;-69
2022/04/07 13:33:30;;;;;;;7.37;1.30;;;;;13.90;97826.00;;;;5036924;28;20237;-66
2022/04/07 13:36:17;;;;;;;3.07;1.10;;;;;14.70;97864.00;;;;5013036;28;20334;-69
2022/04/07 13:39:03;;;;;;;3.20;1.00;;;;;14.90;97856.00;;;;5008706;28;20234;-69
2022/04/07 13:41:49;;;;;;;1.23;0.97;;;;;14.40;97855.00;;;;5009676;28;20229;-69
2022/04/07 13:44:38;;;;;;;1.90;1.13;;;;;14.40;97849.00;;;;5008861;28;20284;-68
2022/04/07 13:47:24;;;;;;;2.60;1.10;;;;;14.20;97844.00;;;;5031782;28;20228;-69
2022/04/07 13:50:10;;;;;;;3.27;1.20;;;;;14.20;97842.00;;;;5045540;28;23705;-68
2022/04/07 13:52:57;;;;;;;4.47;1.00;;;;;13.90;97875.00;;;;5045391;28;20295;-66
2022/04/07 13:55:44;;;;;;;4.37;1.27;;;;;13.70;97871.00;;;;5046034;28;20275;-69
2022/04/07 13:58:30;;;;;;;3.27;1.10;;;;;13.40;97872.00;;;;5033352;28;20236;-68
2022/04/07 14:01:21;;;;;;;3.63;1.20;;;;;13.20;97879.00;;;;5023566;28;20224;-68
2022/04/07 14:04:08;;;;;;;1.30;0.80;;;;;13.20;97892.00;;;;5018793;28;20225;-69